createdAt,value
2023-01-07T00:00:09.341Z,98183.00
2023-01-07T00:04:12.903Z,98178.00
2023-01-07T00:08:13.951Z,98178.00
2023-01-07T00:12:15.101Z,98167.00
2023-01-07T00:16:18.358Z,98166.00
2023-01-07T00:20:19.420Z,98170.00
2023-01-07T00:24:20.550Z,98161.00
2023-01-07T00:28:21.525Z,98159.00
2023-01-07T00:32:24.491Z,98161.00
2023-01-07T00:36:29.184Z,98154.00
2023-01-07T00:40:33.720Z,98156.00
2023-01-07T00:44:36.922Z,98149.00
2023-01-07T00:48:37.887Z,98143.00
2023-01-07T00:52:39.171Z,98149.00
2023-01-07T00:56:40.270Z,98151.00
2023-01-07T01:00:41.318Z,98155.00
2023-01-07T01:04:42.504Z,98144.00
2023-01-07T01:08:46.223Z,98140.00
2023-01-07T01:12:49.274Z,98147.00
2023-01-07T01:16:50.363Z,98142.00
2023-01-07T01:20:51.474Z,98146.00
2023-01-07T01:24:52.465Z,98143.00
2023-01-07T01:28:53.468Z,98151.00
2023-01-07T01:32:54.594Z,98152.00
2023-01-07T01:36:55.569Z,98143.00
2023-01-07T01:40:56.645Z,98144.00
2023-01-07T01:45:00.082Z,98134.00
2023-01-07T01:49:14.109Z,98136.00
2023-01-07T01:53:22.019Z,98119.00
2023-01-07T01:57:24.697Z,98117.00
2023-01-07T02:01:26.817Z,98110.00
2023-01-07T02:05:48.414Z,98116.00
2023-01-07T02:09:53.194Z,98120.00
2023-01-07T02:14:31.553Z,98126.00
2023-01-07T02:19:06.877Z,98121.00
2023-01-07T02:23:28.488Z,98112.00
2023-01-07T02:27:42.101Z,98100.00
2023-01-07T02:32:05.281Z,98107.00
2023-01-07T02:36:27.035Z,98112.00
2023-01-07T02:40:54.916Z,98106.00
2023-01-07T02:45:20.950Z,98093.00
2023-01-07T02:49:22.647Z,98089.00
2023-01-07T02:53:23.608Z,98089.00
2023-01-07T02:57:51.377Z,98087.00
2023-01-07T03:01:59.164Z,98088.00
2023-01-07T03:06:28.801Z,98083.00
2023-01-07T03:10:39.455Z,98071.00
2023-01-07T03:14:46.960Z,98075.00
2023-01-07T03:18:55.297Z,98084.00
2023-01-07T03:22:57.779Z,98085.00
2023-01-07T03:27:02.488Z,98076.00
2023-01-07T03:31:05.181Z,98067.00
2023-01-07T03:35:07.145Z,98067.00
2023-01-07T03:39:10.921Z,98064.00
2023-01-07T03:43:21.453Z,98069.00
2023-01-07T03:47:22.843Z,98058.00
2023-01-07T03:51:23.780Z,98055.00
2023-01-07T03:55:24.878Z,98056.00
2023-01-07T03:59:25.976Z,98045.00
2023-01-07T04:03:27.158Z,98052.00
2023-01-07T04:07:28.114Z,98045.00
2023-01-07T04:11:29.239Z,98049.00
2023-01-07T04:15:30.276Z,98051.00
2023-01-07T04:19:32.752Z,98035.00
2023-01-07T04:23:33.840Z,98037.00
2023-01-07T04:27:34.978Z,98031.00
2023-01-07T04:31:36.037Z,98025.00
2023-01-07T04:35:39.236Z,98018.00
2023-01-07T04:39:40.239Z,98022.00
2023-01-07T04:43:41.196Z,98008.00
2023-01-07T04:47:42.137Z,98007.00
2023-01-07T04:51:43.006Z,97812.00
2023-01-07T04:55:46.293Z,98006.00
2023-01-07T04:59:46.916Z,97998.00
2023-01-07T05:03:47.952Z,97989.00
2023-01-07T05:07:48.913Z,97978.00
2023-01-07T05:11:49.870Z,97983.00
2023-01-07T05:15:50.813Z,97983.00
2023-01-07T05:19:52.741Z,97969.00
2023-01-07T05:23:54.046Z,97968.00
2023-01-07T05:27:55.113Z,97969.00
2023-01-07T05:31:56.054Z,97969.00
2023-01-07T05:35:57.027Z,97968.00
2023-01-07T05:39:58.112Z,97962.00
2023-01-07T05:43:59.198Z,97960.00
2023-01-07T05:48:00.258Z,97962.00
2023-01-07T05:52:01.317Z,97957.00
2023-01-07T05:56:02.873Z,97957.00
2023-01-07T06:00:04.795Z,97949.00
2023-01-07T06:04:06.845Z,97948.00
2023-01-07T06:08:08.640Z,97943.00
2023-01-07T06:12:09.609Z,97946.00
2023-01-07T06:16:12.815Z,97940.00
2023-01-07T06:20:14.696Z,97932.00
2023-01-07T06:24:15.763Z,97923.00
2023-01-07T06:28:16.818Z,97924.00
2023-01-07T06:32:17.750Z,97911.00
2023-01-07T06:36:18.859Z,97918.00
2023-01-07T06:40:19.860Z,97966.00
2023-01-07T06:44:21.029Z,97901.00
2023-01-07T06:48:22.185Z,97897.00
2023-01-07T06:52:23.144Z,97894.00
2023-01-07T06:56:24.298Z,97895.00
2023-01-07T07:00:25.425Z,97885.00
2023-01-07T07:04:26.647Z,97885.00
2023-01-07T07:08:27.859Z,97888.00
2023-01-07T07:12:28.833Z,97878.00
2023-01-07T07:16:32.598Z,97876.00
2023-01-07T07:20:34.161Z,97886.00
2023-01-07T07:24:35.194Z,97874.00
2023-01-07T07:28:36.399Z,97864.00
2023-01-07T07:32:37.563Z,97858.00
2023-01-07T07:36:38.784Z,97864.00
2023-01-07T07:40:40.132Z,97871.00
2023-01-07T07:44:41.107Z,97862.00
2023-01-07T07:48:42.167Z,97860.00
2023-01-07T07:52:43.587Z,97853.00
2023-01-07T07:56:44.794Z,97855.00
2023-01-07T08:00:45.869Z,97859.00
2023-01-07T08:04:47.103Z,97857.00
2023-01-07T08:08:48.246Z,97854.00
2023-01-07T08:12:50.046Z,97852.00
2023-01-07T08:16:51.192Z,97842.00
2023-01-07T08:20:52.262Z,97836.00
2023-01-07T08:24:53.581Z,97691.00
2023-01-07T08:28:54.725Z,97837.00
2023-01-07T08:32:56.822Z,97825.00
2023-01-07T08:36:57.871Z,97826.00
2023-01-07T08:40:59.548Z,97822.00
2023-01-07T08:45:00.612Z,97821.00
2023-01-07T08:49:01.715Z,97811.00
2023-01-07T08:53:02.726Z,97816.00
2023-01-07T08:57:03.866Z,97811.00
2023-01-07T09:01:06.909Z,97811.00
2023-01-07T09:05:08.696Z,97807.00
2023-01-07T09:09:11.217Z,97793.00
2023-01-07T09:13:12.288Z,97792.00
2023-01-07T09:17:13.392Z,97790.00
2023-01-07T09:21:14.465Z,97794.00
2023-01-07T09:25:15.893Z,97782.00
2023-01-07T09:29:16.848Z,97788.00
2023-01-07T09:33:17.887Z,97771.00
2023-01-07T09:37:18.824Z,97772.00
2023-01-07T09:41:23.776Z,97767.00
2023-01-07T09:45:28.663Z,97761.00
2023-01-07T09:49:31.821Z,97761.00
2023-01-07T09:53:45.897Z,97760.00
2023-01-07T09:57:47.601Z,97766.00
2023-01-07T10:02:01.733Z,97782.00
2023-01-07T10:06:12.549Z,97751.00
2023-01-07T10:10:32.815Z,97756.00
2023-01-07T10:14:53.918Z,97752.00
2023-01-07T10:19:29.396Z,97739.00
2023-01-07T10:23:35.278Z,97735.00
2023-01-07T10:27:40.116Z,97734.00
2023-01-07T10:31:43.097Z,97732.00
2023-01-07T10:35:47.498Z,97590.00
2023-01-07T10:40:07.487Z,97718.00
2023-01-07T10:44:35.575Z,97714.00
2023-01-07T10:48:43.741Z,97709.00
2023-01-07T10:53:06.497Z,97695.00
2023-01-07T10:57:11.299Z,97691.00
2023-01-07T11:01:25.084Z,97680.00
2023-01-07T11:05:30.304Z,97674.00
2023-01-07T11:09:34.737Z,97684.00
2023-01-07T11:13:38.441Z,97661.00
2023-01-07T11:17:43.222Z,97657.00
2023-01-07T11:21:48.306Z,97655.00
2023-01-07T11:25:51.871Z,97653.00
2023-01-07T11:29:59.766Z,97641.00
2023-01-07T11:34:04.575Z,97626.00
2023-01-07T11:38:08.236Z,97628.00
2023-01-07T11:42:36.733Z,97608.00
2023-01-07T11:46:41.653Z,97608.00
2023-01-07T11:50:45.492Z,97599.00
2023-01-07T11:54:54.012Z,97590.00
2023-01-07T11:59:17.472Z,97578.00
2023-01-07T12:03:19.934Z,97568.00
2023-01-07T12:07:22.982Z,97568.00
2023-01-07T12:15:40.437Z,97550.00
2023-01-07T12:20:03.183Z,97550.00
2023-01-07T12:24:11.123Z,97539.00
2023-01-07T12:28:15.489Z,97527.00
2023-01-07T12:32:32.439Z,97526.00
2023-01-07T12:36:59.777Z,97520.00
2023-01-07T12:41:09.501Z,97503.00
2023-01-07T12:45:26.520Z,97503.00
2023-01-07T12:49:36.812Z,97495.00
2023-01-07T12:53:46.972Z,97488.00
2023-01-07T12:58:00.557Z,97481.00
2023-01-07T13:02:31.832Z,97476.00
2023-01-07T13:06:41.357Z,97464.00
2023-01-07T13:10:55.022Z,97469.00
2023-01-07T13:15:02.718Z,97460.00
2023-01-07T13:19:07.223Z,97462.00
2023-01-07T13:23:14.796Z,97459.00
2023-01-07T13:27:49.612Z,97436.00
2023-01-07T13:32:00.097Z,97431.00
2023-01-07T13:36:23.107Z,97442.00
2023-01-07T13:40:49.667Z,97442.00
2023-01-07T13:44:57.223Z,97430.00
2023-01-07T13:48:58.754Z,97438.00
2023-01-07T13:53:09.207Z,97430.00
2023-01-07T13:57:25.867Z,97436.00
2023-01-07T14:01:33.484Z,97437.00
2023-01-07T14:05:34.550Z,97430.00
2023-01-07T14:09:36.943Z,97427.00
2023-01-07T14:13:53.527Z,97424.00
2023-01-07T14:18:18.410Z,97423.00
2023-01-07T14:22:45.730Z,97418.00
2023-01-07T14:26:53.277Z,97427.00
2023-01-07T14:30:55.601Z,97428.00
2023-01-07T14:35:15.454Z,97418.00
2023-01-07T14:39:37.594Z,97406.00
2023-01-07T14:43:45.130Z,97394.00
2023-01-07T14:47:50.065Z,97403.00
2023-01-07T14:52:20.915Z,97395.00
2023-01-07T14:56:28.862Z,97387.00
2023-01-07T15:00:45.849Z,97379.00
2023-01-07T15:05:08.882Z,97379.00
2023-01-07T15:09:34.153Z,97367.00
2023-01-07T15:13:57.752Z,97375.00
2023-01-07T15:17:58.826Z,97370.00
2023-01-07T15:22:08.171Z,97377.00
2023-01-07T15:26:22.455Z,97372.00
2023-01-07T15:30:40.560Z,97378.00
2023-01-07T15:34:41.556Z,97368.00
2023-01-07T15:38:50.605Z,97376.00
2023-01-07T15:42:55.292Z,97371.00
2023-01-07T15:46:56.401Z,97373.00
2023-01-07T15:50:59.622Z,97358.00
2023-01-07T15:55:16.480Z,97372.00
2023-01-07T15:59:21.301Z,97366.00
2023-01-07T16:03:23.142Z,97361.00
2023-01-07T16:07:36.790Z,97360.00
2023-01-07T16:11:38.180Z,97366.00
2023-01-07T16:15:40.765Z,97365.00
2023-01-07T16:19:41.868Z,97360.00
2023-01-07T16:23:42.973Z,97357.00
2023-01-07T16:27:44.348Z,97351.00
2023-01-07T16:31:45.781Z,97354.00
2023-01-07T16:35:49.159Z,97352.00
2023-01-07T16:39:52.463Z,97338.00
2023-01-07T16:43:55.814Z,97330.00
2023-01-07T16:48:17.228Z,97327.00
2023-01-07T16:52:20.300Z,97340.00
2023-01-07T16:56:21.553Z,97336.00
2023-01-07T17:00:22.758Z,97339.00
2023-01-07T17:04:29.657Z,97311.00
2023-01-07T17:08:32.024Z,97311.00
2023-01-07T17:12:38.572Z,97309.00
2023-01-07T17:16:40.651Z,97301.00
2023-01-07T17:20:47.910Z,97290.00
2023-01-07T17:24:49.493Z,97290.00
2023-01-07T17:28:53.362Z,97292.00
2023-01-07T17:32:54.480Z,97284.00
2023-01-07T17:36:55.490Z,97293.00
2023-01-07T17:40:56.597Z,97292.00
2023-01-07T17:44:57.611Z,97301.00
2023-01-07T17:49:00.462Z,97288.00
2023-01-07T17:53:01.819Z,97279.00
2023-01-07T17:57:03.155Z,97262.00
2023-01-07T18:01:13.671Z,97278.00
2023-01-07T18:05:24.126Z,97279.00
2023-01-07T18:09:25.289Z,97265.00
2023-01-07T18:13:28.592Z,97280.00
2023-01-07T18:17:29.727Z,97276.00
2023-01-07T18:21:30.901Z,97277.00
2023-01-07T18:25:31.878Z,97269.00
2023-01-07T18:29:32.891Z,97278.00
2023-01-07T18:37:43.475Z,97271.00
2023-01-07T18:41:44.445Z,97278.00
2023-01-07T18:45:47.407Z,97272.00
2023-01-07T18:49:48.574Z,97270.00
2023-01-07T18:53:49.949Z,97265.00
2023-01-07T18:57:50.940Z,97265.00
2023-01-07T19:01:53.937Z,97262.00
2023-01-07T19:05:55.180Z,97256.00
2023-01-07T19:09:56.297Z,97256.00
2023-01-07T19:13:57.327Z,97256.00
2023-01-07T19:17:58.280Z,97246.00
2023-01-07T19:21:59.505Z,97255.00
2023-01-07T19:26:04.030Z,97246.00
2023-01-07T19:30:06.384Z,97231.00
2023-01-07T19:34:07.623Z,97225.00
2023-01-07T19:38:08.625Z,97158.00
2023-01-07T19:42:09.844Z,97220.00
2023-01-07T19:46:11.819Z,97220.00
2023-01-07T19:50:14.421Z,97230.00
2023-01-07T19:54:15.942Z,97234.00
2023-01-07T19:58:17.498Z,97220.00
2023-01-07T20:02:18.793Z,97215.00
2023-01-07T20:06:22.739Z,97215.00
2023-01-07T20:10:23.892Z,97216.00
2023-01-07T20:14:24.886Z,97209.00
2023-01-07T20:18:26.195Z,97226.00
2023-01-07T20:22:28.527Z,97224.00
2023-01-07T20:26:32.387Z,97214.00
2023-01-07T20:30:33.610Z,97209.00
2023-01-07T20:34:34.709Z,97203.00
2023-01-07T20:38:36.449Z,97203.00
2023-01-07T20:42:37.498Z,97215.00
2023-01-07T20:46:39.629Z,97215.00
2023-01-07T20:50:42.187Z,97204.00
2023-01-07T20:54:43.238Z,97182.00
2023-01-07T20:58:44.602Z,97174.00
2023-01-07T21:02:45.985Z,97177.00
2023-01-07T21:06:47.179Z,97182.00
2023-01-07T21:10:48.551Z,97190.00
2023-01-07T21:14:49.604Z,97183.00
2023-01-07T21:18:50.534Z,97197.00
2023-01-07T21:22:51.854Z,97165.00
2023-01-07T21:26:52.960Z,97172.00
2023-01-07T21:30:53.888Z,97162.00
2023-01-07T21:34:55.104Z,97183.00
2023-01-07T21:38:58.284Z,97180.00
2023-01-07T21:42:59.305Z,97170.00
2023-01-07T21:47:00.919Z,97150.00
2023-01-07T21:51:04.820Z,97135.00
2023-01-07T21:55:07.462Z,97132.00
2023-01-07T21:59:09.374Z,97108.00
2023-01-07T22:03:10.405Z,97122.00
2023-01-07T22:07:14.643Z,97139.00
2023-01-07T22:11:17.309Z,97136.00
2023-01-07T22:15:18.986Z,97145.00
2023-01-07T22:19:20.149Z,97097.00
2023-01-07T22:23:21.643Z,97128.00
2023-01-07T22:27:22.815Z,97132.00
2023-01-07T22:31:29.921Z,97134.00
2023-01-07T22:35:33.289Z,97127.00
2023-01-07T22:39:38.467Z,97126.00
2023-01-07T22:43:39.860Z,97123.00
2023-01-07T22:47:44.834Z,97125.00
2023-01-07T22:51:47.962Z,97119.00
2023-01-07T22:55:49.476Z,97111.00
2023-01-07T22:59:50.733Z,96924.00
2023-01-07T23:03:51.762Z,97122.00
2023-01-07T23:07:52.811Z,97105.00
2023-01-07T23:11:55.927Z,97110.00
2023-01-07T23:16:02.020Z,97096.00
2023-01-07T23:20:03.590Z,97096.00
2023-01-07T23:24:05.063Z,97090.00
2023-01-07T23:28:06.154Z,97099.00
2023-01-07T23:32:11.935Z,97088.00
2023-01-07T23:36:14.106Z,97083.00
2023-01-07T23:40:15.080Z,97077.00
2023-01-07T23:44:17.071Z,97062.00
2023-01-07T23:48:18.417Z,97059.00
2023-01-07T23:52:19.856Z,97055.00
2023-01-07T23:56:21.861Z,97055.00
